sensor_id;sensor_type;location;lat;lon;timestamp;P1;durP1;ratioP1;P2;durP2;ratioP2
64682;SDS011;51107;47.652;19.016;2023-08-24T00:00:31;7.85;;;2.58;;
64682;SDS011;51107;47.652;19.016;2023-08-24T00:03:01;3.97;;;2.60;;
64682;SDS011;51107;47.652;19.016;2023-08-24T00:05:34;6.05;;;2.80;;
64682;SDS011;51107;47.652;19.016;2023-08-24T00:08:08;3.87;;;2.62;;
64682;SDS011;51107;47.652;19.016;2023-08-24T00:10:36;5.50;;;2.55;;
64682;SDS011;51107;47.652;19.016;2023-08-24T00:13:05;3.92;;;2.60;;
64682;SDS011;51107;47.652;19.016;2023-08-24T00:15:34;5.45;;;2.55;;
64682;SDS011;51107;47.652;19.016;2023-08-24T00:18:03;5.30;;;2.87;;
64682;SDS011;51107;47.652;19.016;2023-08-24T00:20:32;4.12;;;2.60;;
64682;SDS011;51107;47.652;19.016;2023-08-24T00:23:02;4.22;;;2.70;;
64682;SDS011;51107;47.652;19.016;2023-08-24T00:25:30;4.45;;;2.90;;
64682;SDS011;51107;47.652;19.016;2023-08-24T00:27:58;7.47;;;2.72;;
64682;SDS011;51107;47.652;19.016;2023-08-24T00:30:28;4.03;;;2.62;;
64682;SDS011;51107;47.652;19.016;2023-08-24T00:32:56;3.72;;;2.40;;
64682;SDS011;51107;47.652;19.016;2023-08-24T00:35:24;3.90;;;2.60;;
64682;SDS011;51107;47.652;19.016;2023-08-24T00:37:53;3.33;;;2.25;;
64682;SDS011;51107;47.652;19.016;2023-08-24T00:40:21;4.50;;;2.62;;
64682;SDS011;51107;47.652;19.016;2023-08-24T00:42:49;5.07;;;2.83;;
64682;SDS011;51107;47.652;19.016;2023-08-24T00:45:18;5.95;;;2.78;;
64682;SDS011;51107;47.652;19.016;2023-08-24T00:47:48;3.97;;;2.60;;
64682;SDS011;51107;47.652;19.016;2023-08-24T00:50:18;3.45;;;2.50;;
64682;SDS011;51107;47.652;19.016;2023-08-24T00:52:47;4.07;;;2.60;;
64682;SDS011;51107;47.652;19.016;2023-08-24T00:55:17;5.55;;;2.67;;
64682;SDS011;51107;47.652;19.016;2023-08-24T00:57:45;4.22;;;2.80;;
64682;SDS011;51107;47.652;19.016;2023-08-24T01:00:15;3.85;;;2.30;;
64682;SDS011;51107;47.652;19.016;2023-08-24T01:02:44;3.53;;;2.53;;
64682;SDS011;51107;47.652;19.016;2023-08-24T01:05:14;4.55;;;2.80;;
64682;SDS011;51107;47.652;19.016;2023-08-24T01:07:44;4.57;;;2.85;;
64682;SDS011;51107;47.652;19.016;2023-08-24T01:10:13;4.68;;;2.72;;
64682;SDS011;51107;47.652;19.016;2023-08-24T01:18:19;3.37;;;2.40;;
64682;SDS011;51107;47.652;19.016;2023-08-24T01:20:52;3.92;;;2.35;;
64682;SDS011;51107;47.652;19.016;2023-08-24T01:23:33;4.22;;;2.80;;
64682;SDS011;51107;47.652;19.016;2023-08-24T01:26:12;3.45;;;2.37;;
64682;SDS011;51107;47.652;19.016;2023-08-24T01:28:44;6.20;;;2.85;;
64682;SDS011;51107;47.652;19.016;2023-08-24T01:31:14;4.78;;;2.70;;
64682;SDS011;51107;47.652;19.016;2023-08-24T01:33:45;5.12;;;2.70;;
64682;SDS011;51107;47.652;19.016;2023-08-24T01:36:14;5.85;;;2.70;;
64682;SDS011;51107;47.652;19.016;2023-08-24T01:38:44;4.72;;;2.50;;
64682;SDS011;51107;47.652;19.016;2023-08-24T01:41:26;4.40;;;2.65;;
64682;SDS011;51107;47.652;19.016;2023-08-24T01:43:58;3.42;;;2.50;;
64682;SDS011;51107;47.652;19.016;2023-08-24T01:46:30;6.62;;;2.45;;
64682;SDS011;51107;47.652;19.016;2023-08-24T01:49:00;3.83;;;2.67;;
64682;SDS011;51107;47.652;19.016;2023-08-24T01:51:31;3.30;;;2.50;;
64682;SDS011;51107;47.652;19.016;2023-08-24T01:54:00;4.22;;;2.85;;
64682;SDS011;51107;47.652;19.016;2023-08-24T01:56:28;4.78;;;2.70;;
64682;SDS011;51107;47.652;19.016;2023-08-24T01:58:58;4.07;;;2.33;;
64682;SDS011;51107;47.652;19.016;2023-08-24T02:01:26;4.45;;;2.50;;
64682;SDS011;51107;47.652;19.016;2023-08-24T02:03:54;3.20;;;2.40;;
64682;SDS011;51107;47.652;19.016;2023-08-24T02:06:23;3.58;;;2.55;;
64682;SDS011;51107;47.652;19.016;2023-08-24T02:08:51;4.00;;;2.42;;
64682;SDS011;51107;47.652;19.016;2023-08-24T02:11:20;3.03;;;2.17;;
64682;SDS011;51107;47.652;19.016;2023-08-24T02:13:48;3.83;;;2.60;;
64682;SDS011;51107;47.652;19.016;2023-08-24T02:16:16;4.85;;;2.60;;
64682;SDS011;51107;47.652;19.016;2023-08-24T02:18:45;4.20;;;2.58;;
64682;SDS011;51107;47.652;19.016;2023-08-24T02:21:13;3.17;;;2.50;;
64682;SDS011;51107;47.652;19.016;2023-08-24T02:23:42;3.70;;;2.58;;
64682;SDS011;51107;47.652;19.016;2023-08-24T02:26:10;4.95;;;3.10;;
64682;SDS011;51107;47.652;19.016;2023-08-24T02:28:39;8.82;;;3.10;;
64682;SDS011;51107;47.652;19.016;2023-08-24T02:31:10;3.87;;;2.58;;
64682;SDS011;51107;47.652;19.016;2023-08-24T02:33:38;6.05;;;2.90;;
64682;SDS011;51107;47.652;19.016;2023-08-24T02:36:06;4.57;;;2.97;;
64682;SDS011;51107;47.652;19.016;2023-08-24T02:38:35;4.12;;;2.62;;
64682;SDS011;51107;47.652;19.016;2023-08-24T02:41:05;3.37;;;2.60;;
64682;SDS011;51107;47.652;19.016;2023-08-24T02:43:34;4.30;;;2.78;;
64682;SDS011;51107;47.652;19.016;2023-08-24T02:46:05;4.12;;;2.58;;
64682;SDS011;51107;47.652;19.016;2023-08-24T02:48:35;4.78;;;2.53;;
64682;SDS011;51107;47.652;19.016;2023-08-24T02:51:04;4.43;;;2.20;;
64682;SDS011;51107;47.652;19.016;2023-08-24T02:53:32;3.53;;;2.37;;
64682;SDS011;51107;47.652;19.016;2023-08-24T02:56:01;4.32;;;2.30;;
64682;SDS011;51107;47.652;19.016;2023-08-24T02:58:30;4.93;;;2.80;;
64682;SDS011;51107;47.652;19.016;2023-08-24T03:00:58;3.92;;;2.72;;
64682;SDS011;51107;47.652;19.016;2023-08-24T03:03:27;4.78;;;3.00;;
64682;SDS011;51107;47.652;19.016;2023-08-24T03:06:00;3.92;;;2.53;;
64682;SDS011;51107;47.652;19.016;2023-08-24T03:08:30;3.40;;;2.37;;
64682;SDS011;51107;47.652;19.016;2023-08-24T03:11:00;4.68;;;2.42;;
64682;SDS011;51107;47.652;19.016;2023-08-24T03:13:29;6.07;;;2.65;;
64682;SDS011;51107;47.652;19.016;2023-08-24T03:16:02;3.42;;;2.37;;
64682;SDS011;51107;47.652;19.016;2023-08-24T03:18:32;5.03;;;2.80;;
64682;SDS011;51107;47.652;19.016;2023-08-24T03:21:02;2.70;;;2.03;;
64682;SDS011;51107;47.652;19.016;2023-08-24T03:23:32;4.00;;;2.20;;
64682;SDS011;51107;47.652;19.016;2023-08-24T03:26:01;4.97;;;2.45;;
64682;SDS011;51107;47.652;19.016;2023-08-24T03:28:30;3.72;;;2.47;;
64682;SDS011;51107;47.652;19.016;2023-08-24T03:30:59;3.75;;;2.80;;
64682;SDS011;51107;47.652;19.016;2023-08-24T03:33:29;3.67;;;2.40;;
64682;SDS011;51107;47.652;19.016;2023-08-24T03:35:58;4.05;;;2.58;;
64682;SDS011;51107;47.652;19.016;2023-08-24T03:38:27;4.07;;;2.42;;
64682;SDS011;51107;47.652;19.016;2023-08-24T03:41:05;4.47;;;2.37;;
64682;SDS011;51107;47.652;19.016;2023-08-24T03:43:34;5.65;;;2.58;;
64682;SDS011;51107;47.652;19.016;2023-08-24T03:46:03;4.72;;;2.67;;
64682;SDS011;51107;47.652;19.016;2023-08-24T03:48:33;4.72;;;2.65;;
64682;SDS011;51107;47.652;19.016;2023-08-24T03:51:01;3.85;;;2.55;;
64682;SDS011;51107;47.652;19.016;2023-08-24T03:53:30;4.85;;;2.53;;
64682;SDS011;51107;47.652;19.016;2023-08-24T03:55:58;4.25;;;2.60;;
64682;SDS011;51107;47.652;19.016;2023-08-24T03:58:26;3.60;;;2.47;;
64682;SDS011;51107;47.652;19.016;2023-08-24T04:00:55;5.00;;;2.80;;
64682;SDS011;51107;47.652;19.016;2023-08-24T04:03:24;4.40;;;2.28;;
64682;SDS011;51107;47.652;19.016;2023-08-24T04:05:52;3.95;;;2.70;;
64682;SDS011;51107;47.652;19.016;2023-08-24T04:08:20;4.47;;;2.53;;
64682;SDS011;51107;47.652;19.016;2023-08-24T04:10:49;3.97;;;2.50;;
64682;SDS011;51107;47.652;19.016;2023-08-24T04:13:18;3.70;;;2.42;;
64682;SDS011;51107;47.652;19.016;2023-08-24T04:15:46;3.50;;;2.47;;
64682;SDS011;51107;47.652;19.016;2023-08-24T04:18:14;4.43;;;2.50;;
64682;SDS011;51107;47.652;19.016;2023-08-24T04:20:42;5.18;;;3.03;;
64682;SDS011;51107;47.652;19.016;2023-08-24T04:23:12;5.47;;;3.10;;
64682;SDS011;51107;47.652;19.016;2023-08-24T04:25:41;5.47;;;3.10;;
64682;SDS011;51107;47.652;19.016;2023-08-24T04:28:10;4.20;;;2.62;;
64682;SDS011;51107;47.652;19.016;2023-08-24T04:30:39;4.57;;;2.35;;
64682;SDS011;51107;47.652;19.016;2023-08-24T04:33:07;4.93;;;2.50;;
64682;SDS011;51107;47.652;19.016;2023-08-24T04:35:35;4.68;;;3.17;;
64682;SDS011;51107;47.652;19.016;2023-08-24T04:38:04;4.15;;;2.55;;
64682;SDS011;51107;47.652;19.016;2023-08-24T04:40:45;4.72;;;3.20;;
64682;SDS011;51107;47.652;19.016;2023-08-24T04:43:23;4.55;;;3.00;;
64682;SDS011;51107;47.652;19.016;2023-08-24T04:45:53;4.15;;;2.62;;
64682;SDS011;51107;47.652;19.016;2023-08-24T04:48:22;4.60;;;2.70;;
64682;SDS011;51107;47.652;19.016;2023-08-24T04:50:52;3.50;;;2.70;;
64682;SDS011;51107;47.652;19.016;2023-08-24T04:53:21;5.93;;;2.80;;
64682;SDS011;51107;47.652;19.016;2023-08-24T04:55:49;5.22;;;2.95;;
64682;SDS011;51107;47.652;19.016;2023-08-24T04:58:18;5.90;;;3.35;;
64682;SDS011;51107;47.652;19.016;2023-08-24T05:00:46;7.20;;;2.90;;
64682;SDS011;51107;47.652;19.016;2023-08-24T05:03:16;3.95;;;2.78;;
64682;SDS011;51107;47.652;19.016;2023-08-24T05:05:45;5.45;;;3.00;;
64682;SDS011;51107;47.652;19.016;2023-08-24T05:08:15;3.42;;;2.40;;
64682;SDS011;51107;47.652;19.016;2023-08-24T05:10:43;4.40;;;2.55;;
64682;SDS011;51107;47.652;19.016;2023-08-24T05:13:12;3.92;;;2.53;;
64682;SDS011;51107;47.652;19.016;2023-08-24T05:15:40;5.85;;;2.90;;
64682;SDS011;51107;47.652;19.016;2023-08-24T05:18:08;4.75;;;2.92;;
64682;SDS011;51107;47.652;19.016;2023-08-24T05:20:37;5.37;;;2.90;;
64682;SDS011;51107;47.652;19.016;2023-08-24T05:23:05;6.18;;;2.67;;
64682;SDS011;51107;47.652;19.016;2023-08-24T05:25:33;3.75;;;2.75;;
64682;SDS011;51107;47.652;19.016;2023-08-24T05:28:02;4.55;;;2.90;;
64682;SDS011;51107;47.652;19.016;2023-08-24T05:30:31;4.80;;;2.70;;
64682;SDS011;51107;47.652;19.016;2023-08-24T05:32:59;3.17;;;2.30;;
64682;SDS011;51107;47.652;19.016;2023-08-24T05:35:28;3.97;;;2.55;;
64682;SDS011;51107;47.652;19.016;2023-08-24T05:37:56;4.07;;;2.60;;
64682;SDS011;51107;47.652;19.016;2023-08-24T05:40:24;4.45;;;2.92;;
64682;SDS011;51107;47.652;19.016;2023-08-24T05:42:53;4.57;;;2.85;;
64682;SDS011;51107;47.652;19.016;2023-08-24T05:45:21;5.35;;;2.80;;
64682;SDS011;51107;47.652;19.016;2023-08-24T05:47:53;3.83;;;2.60;;
64682;SDS011;51107;47.652;19.016;2023-08-24T05:50:22;4.22;;;2.47;;
64682;SDS011;51107;47.652;19.016;2023-08-24T05:52:50;3.45;;;2.60;;
64682;SDS011;51107;47.652;19.016;2023-08-24T05:55:18;3.60;;;2.58;;
64682;SDS011;51107;47.652;19.016;2023-08-24T05:57:49;6.07;;;3.12;;
64682;SDS011;51107;47.652;19.016;2023-08-24T06:00:18;5.25;;;2.78;;
64682;SDS011;51107;47.652;19.016;2023-08-24T06:02:50;6.82;;;3.58;;
64682;SDS011;51107;47.652;19.016;2023-08-24T06:05:18;5.05;;;3.42;;
64682;SDS011;51107;47.652;19.016;2023-08-24T06:07:47;6.57;;;3.10;;
64682;SDS011;51107;47.652;19.016;2023-08-24T06:10:17;6.50;;;3.17;;
64682;SDS011;51107;47.652;19.016;2023-08-24T06:12:45;4.65;;;2.72;;
64682;SDS011;51107;47.652;19.016;2023-08-24T06:15:13;5.07;;;3.10;;
64682;SDS011;51107;47.652;19.016;2023-08-24T06:17:42;12.73;;;3.47;;
64682;SDS011;51107;47.652;19.016;2023-08-24T06:20:10;4.25;;;2.92;;
64682;SDS011;51107;47.652;19.016;2023-08-24T06:22:40;4.95;;;2.85;;
64682;SDS011;51107;47.652;19.016;2023-08-24T06:25:08;4.97;;;3.17;;
64682;SDS011;51107;47.652;19.016;2023-08-24T06:27:37;4.45;;;3.10;;
64682;SDS011;51107;47.652;19.016;2023-08-24T06:30:05;4.22;;;2.87;;
64682;SDS011;51107;47.652;19.016;2023-08-24T06:32:34;7.85;;;3.40;;
64682;SDS011;51107;47.652;19.016;2023-08-24T06:35:02;5.60;;;3.40;;
64682;SDS011;51107;47.652;19.016;2023-08-24T06:37:31;4.62;;;3.28;;
64682;SDS011;51107;47.652;19.016;2023-08-24T06:39:59;5.57;;;3.53;;
64682;SDS011;51107;47.652;19.016;2023-08-24T06:42:29;7.20;;;3.33;;
64682;SDS011;51107;47.652;19.016;2023-08-24T06:44:57;5.55;;;3.55;;
64682;SDS011;51107;47.652;19.016;2023-08-24T06:47:26;6.40;;;3.90;;
64682;SDS011;51107;47.652;19.016;2023-08-24T06:49:54;5.03;;;3.35;;
64682;SDS011;51107;47.652;19.016;2023-08-24T06:52:22;6.45;;;3.40;;
64682;SDS011;51107;47.652;19.016;2023-08-24T06:54:51;6.75;;;3.62;;
64682;SDS011;51107;47.652;19.016;2023-08-24T06:57:23;5.20;;;2.95;;
64682;SDS011;51107;47.652;19.016;2023-08-24T06:59:52;3.70;;;2.78;;
64682;SDS011;51107;47.652;19.016;2023-08-24T07:02:20;6.87;;;3.12;;
64682;SDS011;51107;47.652;19.016;2023-08-24T07:04:49;5.15;;;3.20;;
64682;SDS011;51107;47.652;19.016;2023-08-24T07:07:17;5.78;;;3.53;;
64682;SDS011;51107;47.652;19.016;2023-08-24T07:09:46;5.12;;;3.22;;
64682;SDS011;51107;47.652;19.016;2023-08-24T07:12:14;5.57;;;3.08;;
64682;SDS011;51107;47.652;19.016;2023-08-24T07:14:43;6.62;;;3.00;;
64682;SDS011;51107;47.652;19.016;2023-08-24T07:17:11;4.82;;;3.20;;
64682;SDS011;51107;47.652;19.016;2023-08-24T07:19:40;4.28;;;2.95;;
64682;SDS011;51107;47.652;19.016;2023-08-24T07:22:08;4.80;;;3.08;;
64682;SDS011;51107;47.652;19.016;2023-08-24T07:24:36;5.68;;;2.85;;
64682;SDS011;51107;47.652;19.016;2023-08-24T07:27:13;4.15;;;2.95;;
64682;SDS011;51107;47.652;19.016;2023-08-24T07:29:41;4.55;;;3.22;;
64682;SDS011;51107;47.652;19.016;2023-08-24T07:32:09;5.45;;;3.42;;
64682;SDS011;51107;47.652;19.016;2023-08-24T07:34:38;4.72;;;3.08;;
64682;SDS011;51107;47.652;19.016;2023-08-24T07:37:06;4.93;;;3.15;;
64682;SDS011;51107;47.652;19.016;2023-08-24T07:39:34;4.35;;;3.00;;
64682;SDS011;51107;47.652;19.016;2023-08-24T07:42:03;3.67;;;2.75;;
64682;SDS011;51107;47.652;19.016;2023-08-24T07:44:31;6.32;;;3.22;;
64682;SDS011;51107;47.652;19.016;2023-08-24T07:47:00;5.00;;;3.15;;
64682;SDS011;51107;47.652;19.016;2023-08-24T07:49:28;5.50;;;2.85;;
64682;SDS011;51107;47.652;19.016;2023-08-24T07:51:57;4.95;;;3.00;;
64682;SDS011;51107;47.652;19.016;2023-08-24T07:54:26;5.80;;;3.00;;
64682;SDS011;51107;47.652;19.016;2023-08-24T07:56:54;5.70;;;3.20;;
64682;SDS011;51107;47.652;19.016;2023-08-24T07:59:23;5.40;;;3.42;;
64682;SDS011;51107;47.652;19.016;2023-08-24T08:01:51;9.10;;;3.50;;
64682;SDS011;51107;47.652;19.016;2023-08-24T08:04:20;4.60;;;3.30;;
64682;SDS011;51107;47.652;19.016;2023-08-24T08:06:48;5.85;;;3.30;;
64682;SDS011;51107;47.652;19.016;2023-08-24T08:09:17;5.15;;;3.00;;
64682;SDS011;51107;47.652;19.016;2023-08-24T08:11:51;5.47;;;3.28;;
64682;SDS011;51107;47.652;19.016;2023-08-24T08:14:27;6.47;;;3.70;;
64682;SDS011;51107;47.652;19.016;2023-08-24T08:16:57;5.93;;;3.15;;
64682;SDS011;51107;47.652;19.016;2023-08-24T08:19:26;5.35;;;3.30;;
64682;SDS011;51107;47.652;19.016;2023-08-24T08:21:56;4.07;;;2.87;;
64682;SDS011;51107;47.652;19.016;2023-08-24T08:24:35;5.95;;;3.20;;
64682;SDS011;51107;47.652;19.016;2023-08-24T08:27:08;5.40;;;3.40;;
64682;SDS011;51107;47.652;19.016;2023-08-24T08:29:37;5.32;;;3.30;;
64682;SDS011;51107;47.652;19.016;2023-08-24T08:32:09;5.10;;;3.12;;
64682;SDS011;51107;47.652;19.016;2023-08-24T08:34:44;4.15;;;3.00;;
64682;SDS011;51107;47.652;19.016;2023-08-24T08:37:13;3.90;;;2.83;;
64682;SDS011;51107;47.652;19.016;2023-08-24T08:39:46;5.03;;;2.87;;
64682;SDS011;51107;47.652;19.016;2023-08-24T08:42:15;4.72;;;3.12;;
64682;SDS011;51107;47.652;19.016;2023-08-24T08:44:50;4.53;;;3.15;;
64682;SDS011;51107;47.652;19.016;2023-08-24T08:47:29;8.57;;;2.83;;
64682;SDS011;51107;47.652;19.016;2023-08-24T08:49:59;5.93;;;3.10;;
64682;SDS011;51107;47.652;19.016;2023-08-24T08:52:41;3.85;;;2.97;;
64682;SDS011;51107;47.652;19.016;2023-08-24T08:55:10;3.75;;;2.92;;
64682;SDS011;51107;47.652;19.016;2023-08-24T08:57:39;6.45;;;3.40;;
64682;SDS011;51107;47.652;19.016;2023-08-24T09:00:10;8.18;;;3.05;;
64682;SDS011;51107;47.652;19.016;2023-08-24T09:02:42;4.45;;;2.80;;
64682;SDS011;51107;47.652;19.016;2023-08-24T09:05:14;8.25;;;2.35;;
64682;SDS011;51107;47.652;19.016;2023-08-24T09:07:46;2.78;;;2.22;;
64682;SDS011;51107;47.652;19.016;2023-08-24T09:10:17;2.97;;;2.30;;
64682;SDS011;51107;47.652;19.016;2023-08-24T09:12:48;2.95;;;2.28;;
64682;SDS011;51107;47.652;19.016;2023-08-24T09:15:24;2.33;;;2.12;;
64682;SDS011;51107;47.652;19.016;2023-08-24T09:17:54;2.78;;;1.98;;
64682;SDS011;51107;47.652;19.016;2023-08-24T09:20:27;4.37;;;2.67;;
64682;SDS011;51107;47.652;19.016;2023-08-24T09:23:02;6.53;;;2.17;;
64682;SDS011;51107;47.652;19.016;2023-08-24T09:25:46;3.92;;;2.50;;
64682;SDS011;51107;47.652;19.016;2023-08-24T09:28:28;2.28;;;2.03;;
64682;SDS011;51107;47.652;19.016;2023-08-24T09:31:00;2.80;;;2.12;;
64682;SDS011;51107;47.652;19.016;2023-08-24T09:33:29;2.78;;;2.45;;
64682;SDS011;51107;47.652;19.016;2023-08-24T09:35:57;4.15;;;2.17;;
64682;SDS011;51107;47.652;19.016;2023-08-24T09:38:32;3.15;;;2.40;;
64682;SDS011;51107;47.652;19.016;2023-08-24T09:41:01;3.00;;;2.33;;
64682;SDS011;51107;47.652;19.016;2023-08-24T09:43:30;2.70;;;2.10;;
64682;SDS011;51107;47.652;19.016;2023-08-24T09:45:58;4.12;;;2.30;;
64682;SDS011;51107;47.652;19.016;2023-08-24T09:48:27;6.90;;;2.70;;
64682;SDS011;51107;47.652;19.016;2023-08-24T09:50:57;4.37;;;2.60;;
64682;SDS011;51107;47.652;19.016;2023-08-24T09:53:25;2.90;;;2.35;;
64682;SDS011;51107;47.652;19.016;2023-08-24T09:56:00;4.18;;;2.62;;
64682;SDS011;51107;47.652;19.016;2023-08-24T09:58:29;3.22;;;2.42;;
64682;SDS011;51107;47.652;19.016;2023-08-24T10:00:59;3.62;;;2.25;;
64682;SDS011;51107;47.652;19.016;2023-08-24T10:03:30;2.85;;;2.20;;
64682;SDS011;51107;47.652;19.016;2023-08-24T10:06:00;2.85;;;2.42;;
64682;SDS011;51107;47.652;19.016;2023-08-24T10:08:36;3.25;;;2.42;;
64682;SDS011;51107;47.652;19.016;2023-08-24T10:11:06;3.87;;;2.40;;
64682;SDS011;51107;47.652;19.016;2023-08-24T10:13:36;3.40;;;2.30;;
64682;SDS011;51107;47.652;19.016;2023-08-24T10:16:21;5.10;;;2.37;;
64682;SDS011;51107;47.652;19.016;2023-08-24T10:18:52;2.70;;;2.17;;
64682;SDS011;51107;47.652;19.016;2023-08-24T10:21:21;3.15;;;2.37;;
64682;SDS011;51107;47.652;19.016;2023-08-24T10:23:53;3.25;;;2.47;;
64682;SDS011;51107;47.652;19.016;2023-08-24T10:26:24;2.12;;;1.92;;
64682;SDS011;51107;47.652;19.016;2023-08-24T10:28:54;3.17;;;2.58;;
64682;SDS011;51107;47.652;19.016;2023-08-24T10:31:25;3.20;;;2.50;;
64682;SDS011;51107;47.652;19.016;2023-08-24T10:33:54;3.05;;;2.28;;
64682;SDS011;51107;47.652;19.016;2023-08-24T10:36:23;5.80;;;2.60;;
64682;SDS011;51107;47.652;19.016;2023-08-24T10:38:57;5.95;;;2.50;;
64682;SDS011;51107;47.652;19.016;2023-08-24T10:41:46;2.95;;;2.50;;
64682;SDS011;51107;47.652;19.016;2023-08-24T10:44:19;3.55;;;2.60;;
64682;SDS011;51107;47.652;19.016;2023-08-24T10:47:15;4.65;;;2.10;;
64682;SDS011;51107;47.652;19.016;2023-08-24T10:54:53;3.83;;;2.47;;
64682;SDS011;51107;47.652;19.016;2023-08-24T10:57:22;3.40;;;2.50;;
64682;SDS011;51107;47.652;19.016;2023-08-24T11:00:19;3.78;;;2.28;;
64682;SDS011;51107;47.652;19.016;2023-08-24T11:02:51;9.98;;;3.10;;
64682;SDS011;51107;47.652;19.016;2023-08-24T11:05:24;4.80;;;2.40;;
64682;SDS011;51107;47.652;19.016;2023-08-24T11:08:02;4.03;;;2.75;;
64682;SDS011;51107;47.652;19.016;2023-08-24T11:13:16;3.95;;;2.75;;
64682;SDS011;51107;47.652;19.016;2023-08-24T11:15:48;4.00;;;2.50;;
64682;SDS011;51107;47.652;19.016;2023-08-24T11:18:26;4.20;;;2.70;;
64682;SDS011;51107;47.652;19.016;2023-08-24T11:20:56;4.70;;;3.00;;
64682;SDS011;51107;47.652;19.016;2023-08-24T11:23:28;5.78;;;2.85;;
64682;SDS011;51107;47.652;19.016;2023-08-24T11:25:57;4.78;;;2.90;;
64682;SDS011;51107;47.652;19.016;2023-08-24T11:28:27;4.12;;;3.10;;
64682;SDS011;51107;47.652;19.016;2023-08-24T11:30:57;4.93;;;2.45;;
64682;SDS011;51107;47.652;19.016;2023-08-24T11:33:28;4.25;;;2.90;;
64682;SDS011;51107;47.652;19.016;2023-08-24T11:36:00;3.58;;;2.42;;
64682;SDS011;51107;47.652;19.016;2023-08-24T11:38:38;4.43;;;2.62;;
64682;SDS011;51107;47.652;19.016;2023-08-24T11:41:14;3.55;;;2.90;;
64682;SDS011;51107;47.652;19.016;2023-08-24T11:43:44;4.68;;;2.67;;
64682;SDS011;51107;47.652;19.016;2023-08-24T11:46:14;3.42;;;2.42;;
64682;SDS011;51107;47.652;19.016;2023-08-24T11:48:44;3.17;;;2.45;;
64682;SDS011;51107;47.652;19.016;2023-08-24T11:51:13;3.70;;;2.42;;
64682;SDS011;51107;47.652;19.016;2023-08-24T11:53:44;3.58;;;2.25;;
64682;SDS011;51107;47.652;19.016;2023-08-24T11:56:14;4.70;;;2.50;;
64682;SDS011;51107;47.652;19.016;2023-08-24T11:58:48;2.58;;;2.28;;
64682;SDS011;51107;47.652;19.016;2023-08-24T12:01:18;4.87;;;2.70;;
64682;SDS011;51107;47.652;19.016;2023-08-24T12:03:47;3.22;;;2.22;;
64682;SDS011;51107;47.652;19.016;2023-08-24T12:06:16;4.22;;;2.50;;
64682;SDS011;51107;47.652;19.016;2023-08-24T12:08:45;5.18;;;2.60;;
64682;SDS011;51107;47.652;19.016;2023-08-24T12:11:19;3.50;;;2.37;;
64682;SDS011;51107;47.652;19.016;2023-08-24T12:13:49;3.72;;;2.50;;
64682;SDS011;51107;47.652;19.016;2023-08-24T12:16:19;3.10;;;2.20;;
64682;SDS011;51107;47.652;19.016;2023-08-24T12:18:55;3.28;;;2.37;;
64682;SDS011;51107;47.652;19.016;2023-08-24T12:21:25;3.45;;;2.50;;
64682;SDS011;51107;47.652;19.016;2023-08-24T12:24:01;2.78;;;2.28;;
64682;SDS011;51107;47.652;19.016;2023-08-24T12:26:34;2.70;;;2.30;;
64682;SDS011;51107;47.652;19.016;2023-08-24T12:29:07;2.97;;;2.30;;
64682;SDS011;51107;47.652;19.016;2023-08-24T12:31:37;3.70;;;2.60;;
64682;SDS011;51107;47.652;19.016;2023-08-24T12:34:10;2.67;;;2.30;;
64682;SDS011;51107;47.652;19.016;2023-08-24T12:36:38;2.90;;;2.42;;
64682;SDS011;51107;47.652;19.016;2023-08-24T12:39:10;4.37;;;2.55;;
64682;SDS011;51107;47.652;19.016;2023-08-24T12:41:41;3.87;;;2.53;;
64682;SDS011;51107;47.652;19.016;2023-08-24T12:44:09;3.58;;;2.17;;
64682;SDS011;51107;47.652;19.016;2023-08-24T12:46:40;3.95;;;2.40;;
64682;SDS011;51107;47.652;19.016;2023-08-24T12:49:09;3.33;;;2.30;;
64682;SDS011;51107;47.652;19.016;2023-08-24T12:51:37;3.53;;;2.17;;
64682;SDS011;51107;47.652;19.016;2023-08-24T12:54:07;4.50;;;2.53;;
64682;SDS011;51107;47.652;19.016;2023-08-24T12:56:41;3.70;;;2.28;;
64682;SDS011;51107;47.652;19.016;2023-08-24T12:59:09;3.67;;;2.22;;
64682;SDS011;51107;47.652;19.016;2023-08-24T13:01:38;2.80;;;2.12;;
64682;SDS011;51107;47.652;19.016;2023-08-24T13:04:06;4.53;;;2.10;;
64682;SDS011;51107;47.652;19.016;2023-08-24T13:06:34;3.78;;;2.17;;
64682;SDS011;51107;47.652;19.016;2023-08-24T13:09:03;4.15;;;2.20;;
64682;SDS011;51107;47.652;19.016;2023-08-24T13:11:32;4.28;;;2.33;;
64682;SDS011;51107;47.652;19.016;2023-08-24T13:14:00;2.72;;;2.28;;
64682;SDS011;51107;47.652;19.016;2023-08-24T13:16:28;3.83;;;2.40;;
64682;SDS011;51107;47.652;19.016;2023-08-24T13:18:57;3.58;;;2.50;;
64682;SDS011;51107;47.652;19.016;2023-08-24T13:21:25;3.17;;;2.42;;
64682;SDS011;51107;47.652;19.016;2023-08-24T13:23:54;3.50;;;2.30;;
64682;SDS011;51107;47.652;19.016;2023-08-24T13:26:22;3.53;;;2.12;;
64682;SDS011;51107;47.652;19.016;2023-08-24T13:28:51;3.85;;;2.53;;
64682;SDS011;51107;47.652;19.016;2023-08-24T13:31:19;3.95;;;2.35;;
64682;SDS011;51107;47.652;19.016;2023-08-24T13:33:48;4.37;;;2.33;;
64682;SDS011;51107;47.652;19.016;2023-08-24T13:36:16;3.65;;;2.35;;
64682;SDS011;51107;47.652;19.016;2023-08-24T13:38:44;3.75;;;2.45;;
64682;SDS011;51107;47.652;19.016;2023-08-24T13:41:13;3.05;;;2.17;;
64682;SDS011;51107;47.652;19.016;2023-08-24T13:43:41;3.12;;;2.45;;
64682;SDS011;51107;47.652;19.016;2023-08-24T13:46:11;3.10;;;2.55;;
64682;SDS011;51107;47.652;19.016;2023-08-24T13:48:39;6.12;;;2.40;;
64682;SDS011;51107;47.652;19.016;2023-08-24T13:51:07;4.68;;;2.70;;
64682;SDS011;51107;47.652;19.016;2023-08-24T13:53:36;4.40;;;2.45;;
64682;SDS011;51107;47.652;19.016;2023-08-24T13:56:05;4.78;;;2.40;;
64682;SDS011;51107;47.652;19.016;2023-08-24T13:58:33;5.15;;;2.22;;
64682;SDS011;51107;47.652;19.016;2023-08-24T14:01:02;2.85;;;2.30;;
64682;SDS011;51107;47.652;19.016;2023-08-24T14:03:33;3.53;;;2.25;;
64682;SDS011;51107;47.652;19.016;2023-08-24T14:06:02;3.37;;;2.12;;
64682;SDS011;51107;47.652;19.016;2023-08-24T14:08:30;4.80;;;2.67;;
64682;SDS011;51107;47.652;19.016;2023-08-24T14:10:59;2.97;;;2.20;;
64682;SDS011;51107;47.652;19.016;2023-08-24T14:13:28;3.17;;;2.50;;
64682;SDS011;51107;47.652;19.016;2023-08-24T14:15:56;2.40;;;2.20;;
64682;SDS011;51107;47.652;19.016;2023-08-24T14:18:25;2.92;;;2.20;;
64682;SDS011;51107;47.652;19.016;2023-08-24T14:20:53;4.68;;;2.05;;
64682;SDS011;51107;47.652;19.016;2023-08-24T14:23:21;3.30;;;2.30;;
64682;SDS011;51107;47.652;19.016;2023-08-24T14:25:50;3.55;;;2.42;;
64682;SDS011;51107;47.652;19.016;2023-08-24T14:28:19;3.50;;;2.40;;
64682;SDS011;51107;47.652;19.016;2023-08-24T14:30:49;2.97;;;2.30;;
64682;SDS011;51107;47.652;19.016;2023-08-24T14:33:18;4.62;;;2.17;;
64682;SDS011;51107;47.652;19.016;2023-08-24T14:35:50;4.97;;;2.50;;
64682;SDS011;51107;47.652;19.016;2023-08-24T14:38:20;3.12;;;2.37;;
64682;SDS011;51107;47.652;19.016;2023-08-24T14:40:48;3.40;;;2.10;;
64682;SDS011;51107;47.652;19.016;2023-08-24T14:43:16;2.92;;;2.10;;
64682;SDS011;51107;47.652;19.016;2023-08-24T14:45:45;2.87;;;2.17;;
64682;SDS011;51107;47.652;19.016;2023-08-24T14:48:13;4.78;;;1.95;;
64682;SDS011;51107;47.652;19.016;2023-08-24T14:50:42;3.50;;;2.17;;
64682;SDS011;51107;47.652;19.016;2023-08-24T14:53:11;2.37;;;1.90;;
64682;SDS011;51107;47.652;19.016;2023-08-24T14:55:40;7.25;;;2.28;;
64682;SDS011;51107;47.652;19.016;2023-08-24T14:58:08;2.58;;;2.08;;
64682;SDS011;51107;47.652;19.016;2023-08-24T15:00:37;3.37;;;2.28;;
64682;SDS011;51107;47.652;19.016;2023-08-24T15:03:05;4.43;;;2.20;;